OTH - Southwest Oregon Rgnl

Pirep is a free, collaborative database of all public and private airports located within the United States. All pilots are welcome to contribute, edit, and improve any airport they have local knowledge about, no registration required.
Uploaded photos will be licensed under a CC BY-SA 4.0 license. Please only upload photos you have the rights to use.
Tags
Public
METAR / TAF
Car Rental
Edit Tags
Food
Camping
Lodging
Bicycles
Swimming
Golfing
Fishing
Hot Springs
Museum
Flying Clubs
Airpark
Upcoming Events
No upcoming events. Is anything happening here soon?
*
*
*

Where exactly on/near the airport is this event taking place?

Is there a webpage with more information for this event?

Who should be contacted for more information?

What is this event all about?

Repeat every
Description
Last updated: 2024-04-03 19:13:11 PDT
Transient Parking
Fuel Location
Landing & Tie-down Fees
Last updated: 2024-04-03 19:12:14 PDT
Crew Car Availability
Flying Clubs
WiFi Access
Airport Statistics
Location: North Bend, OR
Elevation: 17ft
Sectional: Klamath Falls
Activation date: Jan 1940
Fuel: 100LL, A (prices)
Runway 05/23: 5,980ft
Runway 13/31: 4,470ft
Access: Open to the public
Current Weather — VFR
  • Weather data is strictly informational and not for flight planning purposes.
  • METAR
    2024-05-30 01:56:00 PDT
    Ceiling Wind Temperature Dewpoint Weather Visbility
    Sky clear 30° @ 5kt 51°F 48°F N/A 10SM
    Raw: KOTH 300856Z AUTO 03005KT 10SM CLR 11/09 A3038 RMK AO2 SLP288 T01060089 58003
  • TAF
    2024-05-29 23:00:00 PDT – 2024-05-30 12:00:00 PDT
    Ceiling Wind Weather Visbility
    Sky clear 360° @ 10kt N/A 6SM
    Clouds: @ ft
    Raw: KOTH 300536Z 3006/3106 36010KT P6SM SKC FM301900 35016G22KT P6SM SKC FM302000 36024G25KT P6SM SKC
  • TAF
    2024-05-30 12:00:00 PDT – 2024-05-30 13:00:00 PDT
    Ceiling Wind Weather Visbility
    Sky clear 350° @ 16kt, gusts 22kt N/A 6SM
    Clouds: @ ft
    Raw: KOTH 300536Z 3006/3106 36010KT P6SM SKC FM301900 35016G22KT P6SM SKC FM302000 36024G25KT P6SM SKC
  • TAF
    2024-05-30 13:00:00 PDT – 2024-05-30 23:00:00 PDT
    Ceiling Wind Weather Visbility
    Sky clear 360° @ 24kt, gusts 25kt N/A 6SM
    Clouds: @ ft
    Raw: KOTH 300536Z 3006/3106 36010KT P6SM SKC FM301900 35016G22KT P6SM SKC FM302000 36024G25KT P6SM SKC
Click/tap to add an annotation marker to the map
Airport Webcams
No webcams added yet.
Direct links to live image URLs will be displayed inline on this page. URLs to separate webpages will be linked to.
URL:
Direct links to live image URLs will be displayed inline on this page. URLs to separate webpages will be linked to.
URL:
Remarks
  • Ship chnl xs rwy 05 aprx 2/3 mi fm thld; xs rwy 13 & rwy 23 aprx 1000 ft to 1700 ft fm thld; mast hgts to 144 ft.
  • Migratory flocks of waterfowl on & invof arpt.
  • All acft subjected to arpt usage fees.
  • Paew invof rys and twys 0730-1530.
  • Twy a3 clsd to acft over 60,000 lbs indefly.
Comments
Leave a comment What was your experience like at this airport?